sensor_id;sensor_type;location;lat;lon;timestamp;P1;durP1;ratioP1;P2;durP2;ratioP2
75218;SDS011;63801;49.414;19.474;2023-03-31T00:01:04;25.75;;;14.50;;
75218;SDS011;63801;49.414;19.474;2023-03-31T00:03:05;28.05;;;15.43;;
75218;SDS011;63801;49.414;19.474;2023-03-31T00:05:09;28.20;;;15.38;;
75218;SDS011;63801;49.414;19.474;2023-03-31T00:07:09;26.90;;;15.38;;
75218;SDS011;63801;49.414;19.474;2023-03-31T00:09:11;25.45;;;14.23;;
75218;SDS011;63801;49.414;19.474;2023-03-31T00:11:14;26.35;;;14.65;;
75218;SDS011;63801;49.414;19.474;2023-03-31T00:13:15;29.20;;;15.35;;
75218;SDS011;63801;49.414;19.474;2023-03-31T00:15:15;30.02;;;15.45;;
75218;SDS011;63801;49.414;19.474;2023-03-31T00:17:15;25.58;;;14.15;;
75218;SDS011;63801;49.414;19.474;2023-03-31T00:19:16;21.40;;;12.65;;
75218;SDS011;63801;49.414;19.474;2023-03-31T00:21:20;23.48;;;12.85;;
75218;SDS011;63801;49.414;19.474;2023-03-31T00:23:27;25.60;;;14.02;;
75218;SDS011;63801;49.414;19.474;2023-03-31T00:25:28;26.90;;;14.02;;
75218;SDS011;63801;49.414;19.474;2023-03-31T00:27:28;23.60;;;13.95;;
75218;SDS011;63801;49.414;19.474;2023-03-31T00:29:28;24.50;;;13.27;;
75218;SDS011;63801;49.414;19.474;2023-03-31T00:31:30;28.08;;;13.60;;
75218;SDS011;63801;49.414;19.474;2023-03-31T00:33:31;24.67;;;12.07;;
75218;SDS011;63801;49.414;19.474;2023-03-31T00:35:34;21.95;;;11.68;;
75218;SDS011;63801;49.414;19.474;2023-03-31T00:39:35;19.50;;;11.13;;
75218;SDS011;63801;49.414;19.474;2023-03-31T00:41:36;22.48;;;11.77;;
75218;SDS011;63801;49.414;19.474;2023-03-31T00:43:38;22.85;;;11.95;;
75218;SDS011;63801;49.414;19.474;2023-03-31T00:45:38;23.13;;;12.18;;
75218;SDS011;63801;49.414;19.474;2023-03-31T00:47:52;20.60;;;11.13;;
75218;SDS011;63801;49.414;19.474;2023-03-31T00:49:56;22.63;;;10.77;;
75218;SDS011;63801;49.414;19.474;2023-03-31T00:52:13;20.42;;;10.82;;
75218;SDS011;63801;49.414;19.474;2023-03-31T00:54:15;19.27;;;11.07;;
75218;SDS011;63801;49.414;19.474;2023-03-31T00:56:18;21.70;;;11.63;;
75218;SDS011;63801;49.414;19.474;2023-03-31T00:58:18;18.98;;;10.43;;
75218;SDS011;63801;49.414;19.474;2023-03-31T01:00:21;18.70;;;10.25;;
75218;SDS011;63801;49.414;19.474;2023-03-31T01:02:23;21.15;;;11.40;;
75218;SDS011;63801;49.414;19.474;2023-03-31T01:04:26;21.75;;;11.60;;
75218;SDS011;63801;49.414;19.474;2023-03-31T01:06:28;18.00;;;10.35;;
75218;SDS011;63801;49.414;19.474;2023-03-31T01:08:29;18.83;;;10.63;;
75218;SDS011;63801;49.414;19.474;2023-03-31T01:10:32;19.25;;;11.48;;
75218;SDS011;63801;49.414;19.474;2023-03-31T01:12:41;18.80;;;10.00;;
75218;SDS011;63801;49.414;19.474;2023-03-31T01:14:44;17.70;;;9.85;;
75218;SDS011;63801;49.414;19.474;2023-03-31T01:16:45;22.63;;;11.43;;
75218;SDS011;63801;49.414;19.474;2023-03-31T01:18:45;14.75;;;9.18;;
75218;SDS011;63801;49.414;19.474;2023-03-31T01:23:14;18.05;;;9.50;;
75218;SDS011;63801;49.414;19.474;2023-03-31T01:25:59;18.48;;;9.57;;
75218;SDS011;63801;49.414;19.474;2023-03-31T01:33:35;18.80;;;10.15;;
75218;SDS011;63801;49.414;19.474;2023-03-31T01:45:30;20.83;;;10.15;;
75218;SDS011;63801;49.414;19.474;2023-03-31T01:52:03;18.70;;;10.48;;
75218;SDS011;63801;49.414;19.474;2023-03-31T01:57:02;17.17;;;10.18;;
75218;SDS011;63801;49.414;19.474;2023-03-31T02:00:47;21.65;;;10.70;;
75218;SDS011;63801;49.414;19.474;2023-03-31T02:02:58;20.23;;;10.68;;
75218;SDS011;63801;49.414;19.474;2023-03-31T02:05:10;18.05;;;10.50;;
75218;SDS011;63801;49.414;19.474;2023-03-31T02:07:19;19.80;;;10.38;;
75218;SDS011;63801;49.414;19.474;2023-03-31T02:09:25;20.52;;;10.77;;
75218;SDS011;63801;49.414;19.474;2023-03-31T02:11:36;18.30;;;10.05;;
75218;SDS011;63801;49.414;19.474;2023-03-31T02:13:39;19.55;;;10.02;;
75218;SDS011;63801;49.414;19.474;2023-03-31T02:15:44;20.02;;;10.32;;
75218;SDS011;63801;49.414;19.474;2023-03-31T02:17:50;19.80;;;10.63;;
75218;SDS011;63801;49.414;19.474;2023-03-31T02:19:54;20.58;;;10.88;;
75218;SDS011;63801;49.414;19.474;2023-03-31T02:21:57;20.50;;;11.00;;
75218;SDS011;63801;49.414;19.474;2023-03-31T02:23:59;20.20;;;10.55;;
75218;SDS011;63801;49.414;19.474;2023-03-31T02:26:04;16.80;;;10.10;;
75218;SDS011;63801;49.414;19.474;2023-03-31T02:28:09;19.15;;;10.10;;
75218;SDS011;63801;49.414;19.474;2023-03-31T02:30:15;23.95;;;11.55;;
75218;SDS011;63801;49.414;19.474;2023-03-31T02:34:36;18.13;;;10.07;;
75218;SDS011;63801;49.414;19.474;2023-03-31T02:36:37;19.10;;;10.43;;
75218;SDS011;63801;49.414;19.474;2023-03-31T02:38:42;19.23;;;10.40;;
75218;SDS011;63801;49.414;19.474;2023-03-31T02:40:45;21.30;;;9.98;;
75218;SDS011;63801;49.414;19.474;2023-03-31T02:42:45;20.27;;;9.90;;
75218;SDS011;63801;49.414;19.474;2023-03-31T02:44:45;18.00;;;10.73;;
75218;SDS011;63801;49.414;19.474;2023-03-31T02:46:46;20.23;;;10.57;;
75218;SDS011;63801;49.414;19.474;2023-03-31T02:48:48;22.00;;;10.70;;
75218;SDS011;63801;49.414;19.474;2023-03-31T02:56:18;20.00;;;9.80;;
75218;SDS011;63801;49.414;19.474;2023-03-31T03:05:20;23.15;;;10.82;;
75218;SDS011;63801;49.414;19.474;2023-03-31T03:09:37;19.77;;;10.68;;
75218;SDS011;63801;49.414;19.474;2023-03-31T03:16:28;18.20;;;9.98;;
75218;SDS011;63801;49.414;19.474;2023-03-31T03:18:34;21.05;;;11.18;;
75218;SDS011;63801;49.414;19.474;2023-03-31T03:20:35;19.88;;;10.73;;
75218;SDS011;63801;49.414;19.474;2023-03-31T03:22:36;20.02;;;10.43;;
75218;SDS011;63801;49.414;19.474;2023-03-31T03:24:37;18.50;;;10.00;;
75218;SDS011;63801;49.414;19.474;2023-03-31T03:26:38;21.20;;;10.82;;
75218;SDS011;63801;49.414;19.474;2023-03-31T03:28:39;19.65;;;10.90;;
75218;SDS011;63801;49.414;19.474;2023-03-31T03:30:39;18.75;;;10.32;;
75218;SDS011;63801;49.414;19.474;2023-03-31T03:32:40;20.25;;;10.25;;
75218;SDS011;63801;49.414;19.474;2023-03-31T03:34:40;22.02;;;10.77;;
75218;SDS011;63801;49.414;19.474;2023-03-31T03:36:41;16.98;;;9.73;;
75218;SDS011;63801;49.414;19.474;2023-03-31T03:38:41;18.83;;;9.55;;
75218;SDS011;63801;49.414;19.474;2023-03-31T03:40:41;17.73;;;10.05;;
75218;SDS011;63801;49.414;19.474;2023-03-31T03:42:42;23.60;;;10.48;;
75218;SDS011;63801;49.414;19.474;2023-03-31T03:44:42;16.27;;;9.18;;
75218;SDS011;63801;49.414;19.474;2023-03-31T03:46:42;18.75;;;10.10;;
75218;SDS011;63801;49.414;19.474;2023-03-31T03:48:42;21.40;;;10.80;;
75218;SDS011;63801;49.414;19.474;2023-03-31T03:50:46;16.88;;;10.00;;
75218;SDS011;63801;49.414;19.474;2023-03-31T03:52:47;18.92;;;9.32;;
75218;SDS011;63801;49.414;19.474;2023-03-31T03:54:47;18.33;;;10.13;;
75218;SDS011;63801;49.414;19.474;2023-03-31T03:56:48;19.23;;;10.20;;
75218;SDS011;63801;49.414;19.474;2023-03-31T03:58:48;18.40;;;10.13;;
75218;SDS011;63801;49.414;19.474;2023-03-31T04:00:49;20.30;;;9.65;;
75218;SDS011;63801;49.414;19.474;2023-03-31T04:02:50;18.08;;;10.00;;
75218;SDS011;63801;49.414;19.474;2023-03-31T04:04:50;19.40;;;10.00;;
75218;SDS011;63801;49.414;19.474;2023-03-31T04:06:51;17.58;;;10.00;;
75218;SDS011;63801;49.414;19.474;2023-03-31T04:08:52;18.65;;;10.57;;
75218;SDS011;63801;49.414;19.474;2023-03-31T04:10:52;17.20;;;9.20;;
75218;SDS011;63801;49.414;19.474;2023-03-31T04:12:52;20.02;;;9.73;;
75218;SDS011;63801;49.414;19.474;2023-03-31T04:14:52;20.25;;;9.85;;
75218;SDS011;63801;49.414;19.474;2023-03-31T04:16:53;16.70;;;8.82;;
75218;SDS011;63801;49.414;19.474;2023-03-31T04:18:55;20.33;;;10.07;;
75218;SDS011;63801;49.414;19.474;2023-03-31T04:20:57;22.52;;;9.98;;
75218;SDS011;63801;49.414;19.474;2023-03-31T04:23:04;20.40;;;10.52;;
75218;SDS011;63801;49.414;19.474;2023-03-31T04:25:08;17.27;;;10.27;;
75218;SDS011;63801;49.414;19.474;2023-03-31T04:27:16;21.08;;;10.95;;
75218;SDS011;63801;49.414;19.474;2023-03-31T04:29:16;17.13;;;9.63;;
75218;SDS011;63801;49.414;19.474;2023-03-31T04:31:19;18.75;;;9.85;;
75218;SDS011;63801;49.414;19.474;2023-03-31T04:33:24;21.42;;;10.60;;
75218;SDS011;63801;49.414;19.474;2023-03-31T04:35:25;19.35;;;9.48;;
75218;SDS011;63801;49.414;19.474;2023-03-31T04:37:41;20.70;;;10.32;;
75218;SDS011;63801;49.414;19.474;2023-03-31T04:39:41;19.35;;;10.52;;
75218;SDS011;63801;49.414;19.474;2023-03-31T04:41:45;19.48;;;10.60;;
75218;SDS011;63801;49.414;19.474;2023-03-31T04:43:46;15.63;;;9.55;;
75218;SDS011;63801;49.414;19.474;2023-03-31T04:45:46;16.17;;;9.07;;
75218;SDS011;63801;49.414;19.474;2023-03-31T04:47:46;17.70;;;9.75;;
75218;SDS011;63801;49.414;19.474;2023-03-31T04:49:47;16.98;;;9.73;;
75218;SDS011;63801;49.414;19.474;2023-03-31T04:51:47;15.02;;;8.90;;
75218;SDS011;63801;49.414;19.474;2023-03-31T04:53:47;13.90;;;8.05;;
75218;SDS011;63801;49.414;19.474;2023-03-31T04:55:48;15.10;;;9.23;;
75218;SDS011;63801;49.414;19.474;2023-03-31T04:57:49;16.73;;;8.98;;
75218;SDS011;63801;49.414;19.474;2023-03-31T04:59:50;14.18;;;7.95;;
75218;SDS011;63801;49.414;19.474;2023-03-31T05:01:50;14.40;;;8.43;;
75218;SDS011;63801;49.414;19.474;2023-03-31T05:03:51;14.18;;;7.05;;
75218;SDS011;63801;49.414;19.474;2023-03-31T05:05:51;12.55;;;7.07;;
75218;SDS011;63801;49.414;19.474;2023-03-31T05:07:51;10.32;;;6.68;;
75218;SDS011;63801;49.414;19.474;2023-03-31T05:09:52;13.60;;;7.53;;
75218;SDS011;63801;49.414;19.474;2023-03-31T05:11:52;15.18;;;7.43;;
75218;SDS011;63801;49.414;19.474;2023-03-31T05:13:52;11.63;;;7.03;;
75218;SDS011;63801;49.414;19.474;2023-03-31T05:15:53;15.43;;;7.00;;
75218;SDS011;63801;49.414;19.474;2023-03-31T05:17:53;24.35;;;8.85;;
75218;SDS011;63801;49.414;19.474;2023-03-31T05:19:53;13.85;;;7.35;;
75218;SDS011;63801;49.414;19.474;2023-03-31T05:21:54;13.77;;;7.57;;
75218;SDS011;63801;49.414;19.474;2023-03-31T05:23:55;18.85;;;7.53;;
75218;SDS011;63801;49.414;19.474;2023-03-31T05:25:56;12.27;;;6.78;;
75218;SDS011;63801;49.414;19.474;2023-03-31T05:27:57;10.48;;;6.40;;
75218;SDS011;63801;49.414;19.474;2023-03-31T05:29:58;13.33;;;7.17;;
75218;SDS011;63801;49.414;19.474;2023-03-31T05:31:59;13.35;;;6.70;;
75218;SDS011;63801;49.414;19.474;2023-03-31T05:33:59;13.32;;;6.63;;
75218;SDS011;63801;49.414;19.474;2023-03-31T05:35:59;11.80;;;7.18;;
75218;SDS011;63801;49.414;19.474;2023-03-31T05:38:00;13.38;;;7.55;;
75218;SDS011;63801;49.414;19.474;2023-03-31T05:40:00;13.43;;;6.57;;
75218;SDS011;63801;49.414;19.474;2023-03-31T05:42:02;10.82;;;6.15;;
75218;SDS011;63801;49.414;19.474;2023-03-31T05:44:04;11.00;;;6.68;;
75218;SDS011;63801;49.414;19.474;2023-03-31T05:46:05;15.88;;;8.02;;
75218;SDS011;63801;49.414;19.474;2023-03-31T05:48:05;14.75;;;7.47;;
75218;SDS011;63801;49.414;19.474;2023-03-31T05:50:06;14.77;;;8.15;;
75218;SDS011;63801;49.414;19.474;2023-03-31T05:52:08;15.85;;;7.53;;
75218;SDS011;63801;49.414;19.474;2023-03-31T05:54:09;15.35;;;7.05;;
75218;SDS011;63801;49.414;19.474;2023-03-31T05:56:09;12.80;;;6.90;;
75218;SDS011;63801;49.414;19.474;2023-03-31T05:58:11;11.27;;;5.75;;
75218;SDS011;63801;49.414;19.474;2023-03-31T06:00:11;10.38;;;6.05;;
75218;SDS011;63801;49.414;19.474;2023-03-31T06:02:12;10.35;;;5.65;;
75218;SDS011;63801;49.414;19.474;2023-03-31T06:04:13;11.23;;;6.05;;
75218;SDS011;63801;49.414;19.474;2023-03-31T06:06:13;14.05;;;6.28;;
75218;SDS011;63801;49.414;19.474;2023-03-31T06:08:15;8.93;;;5.63;;
75218;SDS011;63801;49.414;19.474;2023-03-31T06:10:15;8.85;;;5.03;;
75218;SDS011;63801;49.414;19.474;2023-03-31T06:12:15;11.95;;;5.85;;
75218;SDS011;63801;49.414;19.474;2023-03-31T06:14:16;11.35;;;6.82;;
75218;SDS011;63801;49.414;19.474;2023-03-31T06:16:17;8.65;;;5.35;;
75218;SDS011;63801;49.414;19.474;2023-03-31T06:18:17;9.75;;;5.57;;
75218;SDS011;63801;49.414;19.474;2023-03-31T06:20:18;10.38;;;6.30;;
75218;SDS011;63801;49.414;19.474;2023-03-31T06:22:18;11.20;;;6.00;;
75218;SDS011;63801;49.414;19.474;2023-03-31T06:24:18;8.32;;;4.55;;
75218;SDS011;63801;49.414;19.474;2023-03-31T06:26:19;10.77;;;5.82;;
75218;SDS011;63801;49.414;19.474;2023-03-31T06:28:19;12.52;;;5.38;;
75218;SDS011;63801;49.414;19.474;2023-03-31T06:30:20;11.57;;;6.20;;
75218;SDS011;63801;49.414;19.474;2023-03-31T06:32:20;12.38;;;6.03;;
75218;SDS011;63801;49.414;19.474;2023-03-31T06:34:21;12.27;;;5.60;;
75218;SDS011;63801;49.414;19.474;2023-03-31T06:36:21;9.70;;;6.00;;
75218;SDS011;63801;49.414;19.474;2023-03-31T06:38:22;11.10;;;5.70;;
75218;SDS011;63801;49.414;19.474;2023-03-31T06:40:23;12.38;;;6.53;;
75218;SDS011;63801;49.414;19.474;2023-03-31T06:42:23;10.50;;;6.05;;
75218;SDS011;63801;49.414;19.474;2023-03-31T06:44:23;10.18;;;5.97;;
75218;SDS011;63801;49.414;19.474;2023-03-31T06:46:24;10.13;;;5.70;;
75218;SDS011;63801;49.414;19.474;2023-03-31T06:48:25;11.13;;;5.70;;
75218;SDS011;63801;49.414;19.474;2023-03-31T06:50:25;8.90;;;5.30;;
75218;SDS011;63801;49.414;19.474;2023-03-31T06:52:26;10.13;;;4.25;;
75218;SDS011;63801;49.414;19.474;2023-03-31T06:54:26;8.65;;;4.18;;
75218;SDS011;63801;49.414;19.474;2023-03-31T06:56:26;9.93;;;4.15;;
75218;SDS011;63801;49.414;19.474;2023-03-31T06:58:27;7.68;;;4.22;;
75218;SDS011;63801;49.414;19.474;2023-03-31T07:00:27;8.32;;;3.92;;
75218;SDS011;63801;49.414;19.474;2023-03-31T07:02:28;9.05;;;4.53;;
75218;SDS011;63801;49.414;19.474;2023-03-31T07:04:28;10.30;;;4.75;;
75218;SDS011;63801;49.414;19.474;2023-03-31T07:06:28;6.63;;;3.53;;
75218;SDS011;63801;49.414;19.474;2023-03-31T07:08:29;8.23;;;4.45;;
75218;SDS011;63801;49.414;19.474;2023-03-31T07:10:30;11.05;;;5.03;;
75218;SDS011;63801;49.414;19.474;2023-03-31T07:12:31;10.35;;;4.55;;
75218;SDS011;63801;49.414;19.474;2023-03-31T07:14:32;7.63;;;3.83;;
75218;SDS011;63801;49.414;19.474;2023-03-31T07:16:33;8.52;;;3.92;;
75218;SDS011;63801;49.414;19.474;2023-03-31T07:18:35;10.27;;;4.17;;
75218;SDS011;63801;49.414;19.474;2023-03-31T07:20:36;9.43;;;4.10;;
75218;SDS011;63801;49.414;19.474;2023-03-31T07:22:37;7.72;;;3.80;;
75218;SDS011;63801;49.414;19.474;2023-03-31T07:24:40;10.18;;;4.47;;
75218;SDS011;63801;49.414;19.474;2023-03-31T07:26:40;10.45;;;4.63;;
75218;SDS011;63801;49.414;19.474;2023-03-31T07:28:41;10.38;;;4.65;;
75218;SDS011;63801;49.414;19.474;2023-03-31T07:30:41;12.82;;;5.88;;
75218;SDS011;63801;49.414;19.474;2023-03-31T07:32:42;9.85;;;5.28;;
75218;SDS011;63801;49.414;19.474;2023-03-31T07:34:45;17.27;;;7.93;;
75218;SDS011;63801;49.414;19.474;2023-03-31T07:36:45;15.00;;;8.48;;
75218;SDS011;63801;49.414;19.474;2023-03-31T07:38:46;12.98;;;7.75;;
75218;SDS011;63801;49.414;19.474;2023-03-31T07:40:48;14.90;;;9.07;;
75218;SDS011;63801;49.414;19.474;2023-03-31T07:42:48;19.02;;;8.90;;
75218;SDS011;63801;49.414;19.474;2023-03-31T07:44:51;17.52;;;8.77;;
75218;SDS011;63801;49.414;19.474;2023-03-31T07:46:51;14.55;;;7.72;;
75218;SDS011;63801;49.414;19.474;2023-03-31T07:48:51;17.05;;;8.88;;
75218;SDS011;63801;49.414;19.474;2023-03-31T07:50:53;15.15;;;8.43;;
75218;SDS011;63801;49.414;19.474;2023-03-31T07:52:54;15.68;;;8.18;;
75218;SDS011;63801;49.414;19.474;2023-03-31T07:54:54;15.50;;;8.05;;
75218;SDS011;63801;49.414;19.474;2023-03-31T07:56:54;15.25;;;8.00;;
75218;SDS011;63801;49.414;19.474;2023-03-31T07:58:55;13.13;;;7.47;;
75218;SDS011;63801;49.414;19.474;2023-03-31T08:00:56;16.67;;;8.40;;
75218;SDS011;63801;49.414;19.474;2023-03-31T08:02:56;14.48;;;8.35;;
75218;SDS011;63801;49.414;19.474;2023-03-31T08:04:56;14.32;;;7.50;;
75218;SDS011;63801;49.414;19.474;2023-03-31T08:06:57;15.18;;;8.43;;
75218;SDS011;63801;49.414;19.474;2023-03-31T08:08:57;14.75;;;8.68;;
75218;SDS011;63801;49.414;19.474;2023-03-31T08:10:58;19.42;;;9.75;;
75218;SDS011;63801;49.414;19.474;2023-03-31T08:12:58;18.85;;;9.07;;
75218;SDS011;63801;49.414;19.474;2023-03-31T08:14:58;28.08;;;12.07;;
75218;SDS011;63801;49.414;19.474;2023-03-31T08:16:59;23.33;;;10.98;;
75218;SDS011;63801;49.414;19.474;2023-03-31T08:18:59;17.10;;;8.77;;
75218;SDS011;63801;49.414;19.474;2023-03-31T08:21:00;19.95;;;8.98;;
75218;SDS011;63801;49.414;19.474;2023-03-31T08:23:01;16.10;;;7.68;;
75218;SDS011;63801;49.414;19.474;2023-03-31T08:25:02;11.50;;;7.70;;
75218;SDS011;63801;49.414;19.474;2023-03-31T08:27:04;13.05;;;7.60;;
75218;SDS011;63801;49.414;19.474;2023-03-31T08:29:04;16.20;;;6.88;;
75218;SDS011;63801;49.414;19.474;2023-03-31T08:31:05;15.57;;;6.88;;
75218;SDS011;63801;49.414;19.474;2023-03-31T08:33:07;11.65;;;5.90;;
75218;SDS011;63801;49.414;19.474;2023-03-31T08:35:08;11.13;;;6.15;;
75218;SDS011;63801;49.414;19.474;2023-03-31T08:37:09;10.45;;;4.80;;
75218;SDS011;63801;49.414;19.474;2023-03-31T08:39:09;9.65;;;4.10;;
75218;SDS011;63801;49.414;19.474;2023-03-31T08:43:36;8.45;;;3.78;;
75218;SDS011;63801;49.414;19.474;2023-03-31T08:45:43;8.80;;;4.20;;
75218;SDS011;63801;49.414;19.474;2023-03-31T08:47:46;9.45;;;4.57;;
75218;SDS011;63801;49.414;19.474;2023-03-31T08:49:52;7.90;;;3.85;;
75218;SDS011;63801;49.414;19.474;2023-03-31T08:51:57;11.52;;;4.20;;
75218;SDS011;63801;49.414;19.474;2023-03-31T08:54:12;9.27;;;4.38;;
75218;SDS011;63801;49.414;19.474;2023-03-31T08:56:15;7.70;;;4.38;;
75218;SDS011;63801;49.414;19.474;2023-03-31T08:58:35;7.70;;;4.68;;
75218;SDS011;63801;49.414;19.474;2023-03-31T09:00:49;11.73;;;4.30;;
75218;SDS011;63801;49.414;19.474;2023-03-31T09:03:04;7.35;;;3.95;;
75218;SDS011;63801;49.414;19.474;2023-03-31T09:07:53;8.15;;;3.70;;
75218;SDS011;63801;49.414;19.474;2023-03-31T09:12:08;7.25;;;3.92;;
75218;SDS011;63801;49.414;19.474;2023-03-31T09:16:29;7.43;;;4.05;;
75218;SDS011;63801;49.414;19.474;2023-03-31T09:18:44;7.72;;;3.78;;
75218;SDS011;63801;49.414;19.474;2023-03-31T09:20:48;7.25;;;3.47;;
75218;SDS011;63801;49.414;19.474;2023-03-31T09:22:54;9.10;;;3.70;;
75218;SDS011;63801;49.414;19.474;2023-03-31T09:25:02;7.28;;;3.95;;
75218;SDS011;63801;49.414;19.474;2023-03-31T09:27:10;6.38;;;3.40;;
75218;SDS011;63801;49.414;19.474;2023-03-31T09:29:12;5.28;;;3.40;;
75218;SDS011;63801;49.414;19.474;2023-03-31T09:31:18;6.55;;;3.00;;
75218;SDS011;63801;49.414;19.474;2023-03-31T09:33:28;7.82;;;3.00;;
75218;SDS011;63801;49.414;19.474;2023-03-31T09:35:32;6.93;;;3.40;;
75218;SDS011;63801;49.414;19.474;2023-03-31T09:37:33;6.47;;;2.95;;
75218;SDS011;63801;49.414;19.474;2023-03-31T09:39:33;7.47;;;3.00;;
75218;SDS011;63801;49.414;19.474;2023-03-31T09:41:34;6.55;;;2.72;;
75218;SDS011;63801;49.414;19.474;2023-03-31T09:43:35;7.22;;;3.28;;
75218;SDS011;63801;49.414;19.474;2023-03-31T09:45:37;5.90;;;2.80;;
75218;SDS011;63801;49.414;19.474;2023-03-31T09:47:38;8.65;;;3.15;;
75218;SDS011;63801;49.414;19.474;2023-03-31T09:49:44;8.52;;;3.20;;
75218;SDS011;63801;49.414;19.474;2023-03-31T09:51:46;8.88;;;2.83;;
75218;SDS011;63801;49.414;19.474;2023-03-31T09:54:00;7.93;;;3.55;;
75218;SDS011;63801;49.414;19.474;2023-03-31T09:56:07;5.95;;;3.05;;
75218;SDS011;63801;49.414;19.474;2023-03-31T09:58:16;6.70;;;2.90;;
75218;SDS011;63801;49.414;19.474;2023-03-31T10:00:17;6.80;;;2.88;;
75218;SDS011;63801;49.414;19.474;2023-03-31T10:04:43;6.70;;;2.97;;
75218;SDS011;63801;49.414;19.474;2023-03-31T10:06:45;9.20;;;3.20;;
75218;SDS011;63801;49.414;19.474;2023-03-31T10:08:47;7.78;;;3.67;;
75218;SDS011;63801;49.414;19.474;2023-03-31T10:10:54;5.80;;;2.85;;
75218;SDS011;63801;49.414;19.474;2023-03-31T10:12:56;5.93;;;2.45;;
75218;SDS011;63801;49.414;19.474;2023-03-31T10:15:14;7.90;;;2.83;;
75218;SDS011;63801;49.414;19.474;2023-03-31T10:17:20;7.97;;;2.92;;
75218;SDS011;63801;49.414;19.474;2023-03-31T10:19:23;5.93;;;2.85;;
75218;SDS011;63801;49.414;19.474;2023-03-31T10:21:26;13.35;;;2.67;;
75218;SDS011;63801;49.414;19.474;2023-03-31T10:23:34;6.63;;;2.67;;
75218;SDS011;63801;49.414;19.474;2023-03-31T10:25:35;7.32;;;3.35;;
75218;SDS011;63801;49.414;19.474;2023-03-31T10:27:35;9.25;;;3.42;;
75218;SDS011;63801;49.414;19.474;2023-03-31T10:29:39;7.65;;;3.10;;
75218;SDS011;63801;49.414;19.474;2023-03-31T10:31:40;5.13;;;2.65;;
75218;SDS011;63801;49.414;19.474;2023-03-31T10:33:41;5.85;;;2.70;;
75218;SDS011;63801;49.414;19.474;2023-03-31T10:35:48;8.57;;;3.15;;
75218;SDS011;63801;49.414;19.474;2023-03-31T10:37:54;6.53;;;3.00;;
75218;SDS011;63801;49.414;19.474;2023-03-31T10:40:08;10.23;;;3.60;;
75218;SDS011;63801;49.414;19.474;2023-03-31T10:42:20;8.38;;;2.80;;
75218;SDS011;63801;49.414;19.474;2023-03-31T10:44:32;7.50;;;3.05;;
75218;SDS011;63801;49.414;19.474;2023-03-31T10:46:47;5.93;;;2.50;;
75218;SDS011;63801;49.414;19.474;2023-03-31T10:48:51;5.82;;;2.67;;
75218;SDS011;63801;49.414;19.474;2023-03-31T10:50:52;6.28;;;2.40;;
75218;SDS011;63801;49.414;19.474;2023-03-31T10:53:00;6.57;;;2.10;;
75218;SDS011;63801;49.414;19.474;2023-03-31T10:55:05;7.63;;;2.22;;
75218;SDS011;63801;49.414;19.474;2023-03-31T10:57:11;3.25;;;1.77;;
75218;SDS011;63801;49.414;19.474;2023-03-31T11:07:51;7.15;;;2.60;;
75218;SDS011;63801;49.414;19.474;2023-03-31T11:10:18;5.50;;;2.55;;
75218;SDS011;63801;49.414;19.474;2023-03-31T11:12:29;5.45;;;2.42;;
75218;SDS011;63801;49.414;19.474;2023-03-31T11:19:07;7.72;;;2.20;;
75218;SDS011;63801;49.414;19.474;2023-03-31T11:21:33;8.68;;;2.30;;
75218;SDS011;63801;49.414;19.474;2023-03-31T11:23:44;8.93;;;2.90;;
75218;SDS011;63801;49.414;19.474;2023-03-31T11:25:56;6.38;;;2.08;;
75218;SDS011;63801;49.414;19.474;2023-03-31T11:32:47;5.88;;;2.10;;
75218;SDS011;63801;49.414;19.474;2023-03-31T11:41:38;8.07;;;3.00;;
75218;SDS011;63801;49.414;19.474;2023-03-31T11:43:47;4.63;;;2.38;;
75218;SDS011;63801;49.414;19.474;2023-03-31T11:45:51;6.40;;;2.75;;
75218;SDS011;63801;49.414;19.474;2023-03-31T11:48:01;7.85;;;2.45;;
75218;SDS011;63801;49.414;19.474;2023-03-31T11:50:10;6.80;;;2.60;;
75218;SDS011;63801;49.414;19.474;2023-03-31T11:52:16;4.07;;;1.95;;
75218;SDS011;63801;49.414;19.474;2023-03-31T11:56:34;5.78;;;2.33;;
75218;SDS011;63801;49.414;19.474;2023-03-31T11:58:39;4.53;;;1.88;;
75218;SDS011;63801;49.414;19.474;2023-03-31T12:00:51;6.32;;;2.00;;
75218;SDS011;63801;49.414;19.474;2023-03-31T12:03:08;3.67;;;1.83;;
75218;SDS011;63801;49.414;19.474;2023-03-31T12:05:21;7.47;;;1.55;;
75218;SDS011;63801;49.414;19.474;2023-03-31T12:12:24;8.95;;;3.03;;
75218;SDS011;63801;49.414;19.474;2023-03-31T12:16:39;6.70;;;2.72;;
75218;SDS011;63801;49.414;19.474;2023-03-31T12:21:23;7.25;;;2.00;;
75218;SDS011;63801;49.414;19.474;2023-03-31T12:23:30;19.67;;;6.45;;
75218;SDS011;63801;49.414;19.474;2023-03-31T12:25:38;9.15;;;2.83;;
75218;SDS011;63801;49.414;19.474;2023-03-31T12:27:47;9.38;;;1.85;;
75218;SDS011;63801;49.414;19.474;2023-03-31T12:29:57;3.70;;;1.42;;
75218;SDS011;63801;49.414;19.474;2023-03-31T12:32:03;4.25;;;1.58;;
75218;SDS011;63801;49.414;19.474;2023-03-31T12:34:11;4.70;;;1.67;;
75218;SDS011;63801;49.414;19.474;2023-03-31T12:36:22;4.90;;;1.40;;
75218;SDS011;63801;49.414;19.474;2023-03-31T12:40:44;5.60;;;1.95;;
75218;SDS011;63801;49.414;19.474;2023-03-31T12:45:29;6.72;;;1.67;;
75218;SDS011;63801;49.414;19.474;2023-03-31T12:57:13;4.03;;;1.48;;
75218;SDS011;63801;49.414;19.474;2023-03-31T12:59:26;5.47;;;1.20;;
75218;SDS011;63801;49.414;19.474;2023-03-31T13:01:31;6.28;;;1.65;;
75218;SDS011;63801;49.414;19.474;2023-03-31T13:10:54;6.88;;;2.00;;
75218;SDS011;63801;49.414;19.474;2023-03-31T13:13:01;7.85;;;3.05;;
75218;SDS011;63801;49.414;19.474;2023-03-31T13:15:04;6.50;;;2.88;;
75218;SDS011;63801;49.414;19.474;2023-03-31T13:17:19;6.88;;;2.38;;
75218;SDS011;63801;49.414;19.474;2023-03-31T13:19:27;17.52;;;5.30;;
75218;SDS011;63801;49.414;19.474;2023-03-31T13:21:31;17.65;;;4.85;;
75218;SDS011;63801;49.414;19.474;2023-03-31T13:23:52;19.98;;;5.75;;
75218;SDS011;63801;49.414;19.474;2023-03-31T13:25:57;17.92;;;5.20;;
75218;SDS011;63801;49.414;19.474;2023-03-31T13:32:41;11.60;;;3.40;;
75218;SDS011;63801;49.414;19.474;2023-03-31T13:35:13;5.28;;;2.20;;
75218;SDS011;63801;49.414;19.474;2023-03-31T13:37:34;6.93;;;2.47;;
75218;SDS011;63801;49.414;19.474;2023-03-31T13:44:55;5.57;;;1.88;;
75218;SDS011;63801;49.414;19.474;2023-03-31T13:47:13;7.25;;;1.92;;
75218;SDS011;63801;49.414;19.474;2023-03-31T13:51:59;7.60;;;2.55;;
75218;SDS011;63801;49.414;19.474;2023-03-31T13:58:52;14.10;;;3.33;;
75218;SDS011;63801;49.414;19.474;2023-03-31T14:05:49;11.13;;;3.75;;
75218;SDS011;63801;49.414;19.474;2023-03-31T14:10:30;12.98;;;3.70;;
75218;SDS011;63801;49.414;19.474;2023-03-31T14:12:34;14.55;;;4.60;;
75218;SDS011;63801;49.414;19.474;2023-03-31T14:14:38;7.53;;;3.03;;
75218;SDS011;63801;49.414;19.474;2023-03-31T14:16:40;11.27;;;3.58;;
75218;SDS011;63801;49.414;19.474;2023-03-31T14:18:46;17.95;;;5.63;;
75218;SDS011;63801;49.414;19.474;2023-03-31T14:35:18;8.85;;;3.05;;
75218;SDS011;63801;49.414;19.474;2023-03-31T14:37:27;9.82;;;3.42;;
75218;SDS011;63801;49.414;19.474;2023-03-31T14:39:29;8.82;;;3.78;;
75218;SDS011;63801;49.414;19.474;2023-03-31T14:41:32;10.70;;;2.78;;
75218;SDS011;63801;49.414;19.474;2023-03-31T14:43:33;15.95;;;5.38;;
75218;SDS011;63801;49.414;19.474;2023-03-31T14:45:39;19.10;;;5.68;;